createdAt,value
2018-11-10T00:00:03.208Z,1001.26
2018-11-10T00:00:29.339Z,1001.27
2018-11-10T00:00:55.465Z,1001.24
2018-11-10T00:01:21.597Z,1001.26
2018-11-10T00:01:47.734Z,1001.22
2018-11-10T00:02:13.891Z,1001.24
2018-11-10T00:02:40.021Z,1001.23
2018-11-10T00:03:06.182Z,1001.23
2018-11-10T00:03:32.302Z,1001.23
2018-11-10T00:03:58.485Z,1001.23
2018-11-10T00:04:24.669Z,1001.22
2018-11-10T00:04:50.738Z,1001.22
2018-11-10T00:05:16.878Z,1001.23
2018-11-10T00:05:43.028Z,1001.18
2018-11-10T00:06:09.170Z,1001.16
2018-11-10T00:06:35.298Z,1001.16
2018-11-10T00:07:01.433Z,1001.17
2018-11-10T00:07:27.567Z,1001.17
2018-11-10T00:07:53.790Z,1001.17
2018-11-10T00:08:19.957Z,1001.17
2018-11-10T00:08:46.013Z,1001.15
2018-11-10T00:09:12.169Z,1001.16
2018-11-10T00:09:38.345Z,1001.14
2018-11-10T00:10:04.459Z,1001.14
2018-11-10T00:10:30.598Z,1001.11
2018-11-10T00:10:56.721Z,1001.16
2018-11-10T00:11:22.855Z,1001.13
2018-11-10T00:11:48.989Z,1001.15
2018-11-10T00:12:15.118Z,1001.12
2018-11-10T00:12:41.246Z,1001.12
2018-11-10T00:13:07.414Z,1001.14
2018-11-10T00:13:33.542Z,1001.12
2018-11-10T00:13:59.675Z,1001.14
2018-11-10T00:14:25.837Z,1001.09
2018-11-10T00:14:51.968Z,1001.08
2018-11-10T00:15:18.114Z,1001.07
2018-11-10T00:15:44.274Z,1001.1
2018-11-10T00:16:10.407Z,1001.09
2018-11-10T00:16:36.683Z,1001.06
2018-11-10T00:17:02.741Z,1001.05
2018-11-10T00:17:28.890Z,1001.08
2018-11-10T00:17:55.025Z,1001.04
2018-11-10T00:18:21.175Z,1001.03
2018-11-10T00:18:47.309Z,1001.04
2018-11-10T00:19:13.441Z,1001
2018-11-10T00:19:39.574Z,1001.01
2018-11-10T00:20:05.708Z,1000.99
2018-11-10T00:20:31.842Z,1000.97
2018-11-10T00:20:57.991Z,1000.99
2018-11-10T00:21:24.118Z,1001
2018-11-10T00:21:50.283Z,1000.99
2018-11-10T00:22:16.412Z,1001
2018-11-10T00:22:42.545Z,1001.01
2018-11-10T00:23:08.677Z,1000.96
2018-11-10T00:23:34.805Z,1001
2018-11-10T00:24:00.942Z,1001
2018-11-10T00:24:27.073Z,1001
2018-11-10T00:24:53.206Z,1000.96
2018-11-10T00:25:19.340Z,1000.96
2018-11-10T00:25:45.472Z,1000.96
2018-11-10T00:26:11.627Z,1000.96
2018-11-10T00:26:37.763Z,1000.97
2018-11-10T00:27:03.922Z,1000.98
2018-11-10T00:27:30.049Z,1000.93
2018-11-10T00:27:56.178Z,1000.97
2018-11-10T00:28:22.311Z,1000.94
2018-11-10T00:28:48.447Z,1000.89
2018-11-10T00:29:14.601Z,1000.93
2018-11-10T00:29:40.731Z,1000.94
2018-11-10T00:30:06.864Z,1000.91
2018-11-10T00:30:33.017Z,1000.92
2018-11-10T00:30:59.143Z,1000.92
2018-11-10T00:31:25.282Z,1000.89
2018-11-10T00:31:51.434Z,1000.89
2018-11-10T00:32:17.566Z,1000.85
2018-11-10T00:32:43.735Z,1000.86
2018-11-10T00:33:09.885Z,1000.88
2018-11-10T00:33:36.025Z,1000.86
2018-11-10T00:34:02.155Z,1000.81
2018-11-10T00:34:28.310Z,1000.83
2018-11-10T00:34:54.441Z,1000.82
2018-11-10T00:35:20.582Z,1000.86
2018-11-10T00:35:46.709Z,1000.82
2018-11-10T00:36:12.866Z,1000.83
2018-11-10T00:36:39.006Z,1000.85
2018-11-10T00:37:05.141Z,1000.88
2018-11-10T00:37:31.268Z,1000.85
2018-11-10T00:37:57.424Z,1000.81
2018-11-10T00:38:23.553Z,1000.83
2018-11-10T00:38:49.693Z,1000.84
2018-11-10T00:39:15.822Z,1000.81
2018-11-10T00:39:41.955Z,1000.8
2018-11-10T00:40:08.082Z,1000.82
2018-11-10T00:40:34.222Z,1000.8
2018-11-10T00:41:00.348Z,1000.82
2018-11-10T00:41:26.502Z,1000.8
2018-11-10T00:41:52.633Z,1000.77
2018-11-10T00:42:18.789Z,1000.81
2018-11-10T00:42:44.947Z,1000.76
2018-11-10T00:43:11.087Z,1000.73
2018-11-10T00:43:37.217Z,1000.72
2018-11-10T00:44:03.367Z,1000.75
2018-11-10T00:44:29.523Z,1000.72
2018-11-10T00:44:55.649Z,1000.74
2018-11-10T00:45:21.786Z,1000.73
2018-11-10T00:45:47.914Z,1000.75
2018-11-10T00:46:14.044Z,1000.75
2018-11-10T00:46:40.201Z,1000.71
2018-11-10T00:47:06.333Z,1000.71
2018-11-10T00:47:32.468Z,1000.74
2018-11-10T00:47:58.597Z,1000.7
2018-11-10T00:48:24.734Z,1000.7
2018-11-10T00:48:50.868Z,1000.69
2018-11-10T00:49:17.024Z,1000.72
2018-11-10T00:49:43.159Z,1000.72
2018-11-10T00:50:09.291Z,1000.69
2018-11-10T00:50:35.425Z,1000.72
2018-11-10T00:51:01.550Z,1000.69
2018-11-10T00:51:27.685Z,1000.68
2018-11-10T00:51:53.846Z,1000.66
2018-11-10T00:52:19.986Z,1000.67
2018-11-10T00:52:46.143Z,1000.66
2018-11-10T00:53:12.270Z,1000.65
2018-11-10T00:53:38.428Z,1000.61
2018-11-10T00:54:04.555Z,1000.63
2018-11-10T00:54:30.726Z,1000.6
2018-11-10T00:54:56.859Z,1000.64
2018-11-10T00:55:23.037Z,1000.64
2018-11-10T00:55:49.171Z,1000.62
2018-11-10T00:56:15.359Z,1000.65
2018-11-10T00:56:41.483Z,1000.65
2018-11-10T00:57:07.632Z,1000.63
2018-11-10T00:57:33.767Z,1000.6
2018-11-10T00:57:59.897Z,1000.61
2018-11-10T00:58:26.056Z,1000.58
2018-11-10T00:58:52.192Z,1000.61
2018-11-10T00:59:18.344Z,1000.61
2018-11-10T00:59:44.481Z,1000.59
2018-11-10T01:00:10.609Z,1000.58
2018-11-10T01:00:36.741Z,1000.59
2018-11-10T01:01:02.876Z,1000.63
2018-11-10T01:01:29.031Z,1000.61
2018-11-10T01:01:55.185Z,1000.61
2018-11-10T01:02:21.322Z,1000.6
2018-11-10T01:02:47.485Z,1000.6
2018-11-10T01:03:13.630Z,1000.57
2018-11-10T01:03:39.761Z,1000.6
2018-11-10T01:04:05.897Z,1000.61
2018-11-10T01:04:32.048Z,1000.6
2018-11-10T01:04:58.178Z,1000.58
2018-11-10T01:05:24.314Z,1000.61
2018-11-10T01:05:50.490Z,1000.55
2018-11-10T01:06:16.646Z,1000.56
2018-11-10T01:06:42.777Z,1000.54
2018-11-10T01:07:08.913Z,1000.53
2018-11-10T01:07:35.042Z,1000.54
2018-11-10T01:08:01.205Z,1000.5
2018-11-10T01:08:27.361Z,1000.54
2018-11-10T01:08:53.493Z,1000.51
2018-11-10T01:09:19.646Z,1000.5
2018-11-10T01:09:45.778Z,1000.47
2018-11-10T01:10:11.921Z,1000.5
2018-11-10T01:10:38.074Z,1000.53
2018-11-10T01:11:04.211Z,1000.49
2018-11-10T01:11:30.360Z,1000.51
2018-11-10T01:11:56.497Z,1000.52
2018-11-10T01:12:22.628Z,1000.45
2018-11-10T01:12:48.758Z,1000.44
2018-11-10T01:13:14.891Z,1000.5
2018-11-10T01:13:41.023Z,1000.51
2018-11-10T01:14:07.181Z,1000.48
2018-11-10T01:14:33.319Z,1000.51
2018-11-10T01:14:59.446Z,1000.46
2018-11-10T01:15:25.632Z,1000.47
2018-11-10T01:15:51.762Z,1000.45
2018-11-10T01:16:17.891Z,1000.45
2018-11-10T01:16:44.021Z,1000.48
2018-11-10T01:17:16.419Z,1000.48
2018-11-10T01:17:42.602Z,1000.44
2018-11-10T01:18:08.737Z,1000.43
2018-11-10T01:18:34.865Z,1000.46
2018-11-10T01:19:01.008Z,1000.42
2018-11-10T01:19:27.133Z,1000.41
2018-11-10T01:19:53.270Z,1000.39
2018-11-10T01:20:19.409Z,1000.44
2018-11-10T01:20:45.535Z,1000.4
2018-11-10T01:21:11.713Z,1000.41
2018-11-10T01:21:37.842Z,1000.42
2018-11-10T01:22:03.995Z,1000.4
2018-11-10T01:22:30.152Z,1000.4
2018-11-10T01:22:56.283Z,1000.42
2018-11-10T01:23:22.458Z,1000.41
2018-11-10T01:23:48.591Z,1000.36
2018-11-10T01:24:14.723Z,1000.37
2018-11-10T01:24:40.855Z,1000.35
2018-11-10T01:25:07.022Z,1000.37
2018-11-10T01:25:33.155Z,1000.38
2018-11-10T01:25:59.278Z,1000.41
2018-11-10T01:26:25.412Z,1000.4
2018-11-10T01:26:51.548Z,1000.37
2018-11-10T01:27:17.677Z,1000.31
2018-11-10T01:27:43.885Z,1000.35
2018-11-10T01:28:10.004Z,1000.37
2018-11-10T01:28:36.159Z,1000.39
2018-11-10T01:29:02.290Z,1000.41
2018-11-10T01:29:28.497Z,1000.38
2018-11-10T01:29:54.630Z,1000.33
2018-11-10T01:30:20.771Z,1000.38
2018-11-10T01:30:46.915Z,1000.35
2018-11-10T01:31:13.039Z,1000.34
2018-11-10T01:31:39.195Z,1000.35
2018-11-10T01:32:05.333Z,1000.35
2018-11-10T01:32:31.465Z,1000.33
2018-11-10T01:32:57.639Z,1000.33
2018-11-10T01:33:23.774Z,1000.33
2018-11-10T01:33:49.900Z,1000.31
2018-11-10T01:34:16.032Z,1000.31
2018-11-10T01:34:42.164Z,1000.27
2018-11-10T01:35:08.300Z,1000.26
2018-11-10T01:35:34.462Z,1000.26
2018-11-10T01:36:00.656Z,1000.26
2018-11-10T01:36:26.749Z,1000.29
2018-11-10T01:36:52.884Z,1000.24
2018-11-10T01:37:19.019Z,1000.23
2018-11-10T01:37:45.154Z,1000.26
2018-11-10T01:38:11.286Z,1000.26
2018-11-10T01:38:37.447Z,1000.28
2018-11-10T01:39:03.577Z,1000.27
2018-11-10T01:39:29.702Z,1000.26
2018-11-10T01:39:55.833Z,1000.26
2018-11-10T01:40:21.961Z,1000.2
2018-11-10T01:40:48.101Z,1000.23
2018-11-10T01:41:14.237Z,1000.23
2018-11-10T01:41:40.366Z,1000.23
2018-11-10T01:42:06.490Z,1000.22
2018-11-10T01:42:32.631Z,1000.23
2018-11-10T01:42:58.781Z,1000.21
2018-11-10T01:43:24.916Z,1000.21
2018-11-10T01:43:51.066Z,1000.16
2018-11-10T01:44:17.196Z,1000.22
2018-11-10T01:44:43.338Z,1000.17
2018-11-10T01:45:09.485Z,1000.16
2018-11-10T01:45:35.628Z,1000.14
2018-11-10T01:46:01.762Z,1000.17
2018-11-10T01:46:27.885Z,1000.15
2018-11-10T01:46:54.014Z,1000.16
2018-11-10T01:47:20.148Z,1000.17
2018-11-10T01:47:46.308Z,1000.1
2018-11-10T01:48:12.465Z,1000.11
2018-11-10T01:48:38.621Z,1000.11
2018-11-10T01:49:04.757Z,1000.08
2018-11-10T01:49:30.912Z,1000.09
2018-11-10T01:49:57.038Z,1000.1
2018-11-10T01:50:23.167Z,1000.07
2018-11-10T01:50:49.304Z,1000.11
2018-11-10T01:51:15.437Z,1000.09
2018-11-10T01:51:41.566Z,1000.03
2018-11-10T01:52:07.692Z,1000.05
2018-11-10T01:52:33.858Z,1000.04
2018-11-10T01:53:00.024Z,1000.03
2018-11-10T01:53:26.157Z,1000.06
2018-11-10T01:53:52.290Z,1000.03
2018-11-10T01:54:18.413Z,1000.03
2018-11-10T01:54:44.565Z,1000.03
2018-11-10T01:55:10.721Z,1000
2018-11-10T01:55:36.842Z,1000.02
2018-11-10T01:56:02.984Z,999.98
2018-11-10T01:56:29.109Z,1000
2018-11-10T01:56:55.246Z,999.97
2018-11-10T01:57:21.367Z,999.96
2018-11-10T01:57:47.533Z,999.96
2018-11-10T01:58:13.666Z,999.97
2018-11-10T01:58:39.853Z,999.94
2018-11-10T01:59:05.982Z,999.96
2018-11-10T01:59:32.113Z,999.92
2018-11-10T01:59:58.269Z,999.89
2018-11-10T02:00:24.431Z,999.9
2018-11-10T02:00:50.570Z,999.84
2018-11-10T02:01:16.700Z,999.89
2018-11-10T02:01:42.842Z,999.85
2018-11-10T02:02:08.972Z,999.86
2018-11-10T02:02:35.136Z,999.85
2018-11-10T02:03:01.268Z,999.84
2018-11-10T02:03:27.407Z,999.85
2018-11-10T02:03:53.533Z,999.8
2018-11-10T02:04:19.678Z,999.82
2018-11-10T02:04:45.830Z,999.81
2018-11-10T02:05:11.969Z,999.84
2018-11-10T02:05:38.099Z,999.82
2018-11-10T02:06:04.229Z,999.83
2018-11-10T02:06:30.403Z,999.81
2018-11-10T02:06:56.544Z,999.79
2018-11-10T02:07:22.667Z,999.77
2018-11-10T02:07:48.798Z,999.8
2018-11-10T02:08:14.938Z,999.78
2018-11-10T02:08:41.073Z,999.82
2018-11-10T02:09:07.208Z,999.76
2018-11-10T02:09:33.353Z,999.71
2018-11-10T02:09:59.507Z,999.73
2018-11-10T02:10:25.642Z,999.72
2018-11-10T02:10:51.773Z,999.7
2018-11-10T02:11:17.908Z,999.73
2018-11-10T02:11:44.041Z,999.69
2018-11-10T02:12:10.168Z,999.72
2018-11-10T02:12:36.304Z,999.73
2018-11-10T02:13:02.443Z,999.69
2018-11-10T02:13:28.574Z,999.68
2018-11-10T02:13:54.713Z,999.7
2018-11-10T02:14:20.862Z,999.65
2018-11-10T02:14:47.018Z,999.63
2018-11-10T02:15:13.145Z,999.68
2018-11-10T02:15:39.283Z,999.67
2018-11-10T02:16:05.440Z,999.7
2018-11-10T02:16:31.565Z,999.67
2018-11-10T02:16:57.740Z,999.68
2018-11-10T02:17:23.871Z,999.66
2018-11-10T02:17:50.000Z,999.68
2018-11-10T02:18:16.134Z,999.67
2018-11-10T02:18:42.269Z,999.66
2018-11-10T02:19:08.394Z,999.66
2018-11-10T02:19:34.552Z,999.62
2018-11-10T02:20:00.686Z,999.57
2018-11-10T02:20:26.816Z,999.62
2018-11-10T02:20:52.942Z,999.61
2018-11-10T02:21:19.070Z,999.61
2018-11-10T02:21:45.201Z,999.58
2018-11-10T02:22:11.334Z,999.56
2018-11-10T02:22:37.470Z,999.61
2018-11-10T02:23:03.605Z,999.59
2018-11-10T02:23:29.734Z,999.55
2018-11-10T02:23:55.860Z,999.56
2018-11-10T02:24:22.000Z,999.53
2018-11-10T02:24:48.125Z,999.57
2018-11-10T02:25:14.265Z,999.54
2018-11-10T02:25:40.395Z,999.54
2018-11-10T02:26:06.572Z,999.55
2018-11-10T02:26:32.732Z,999.56
2018-11-10T02:26:58.867Z,999.54
2018-11-10T02:27:25.004Z,999.57
2018-11-10T02:27:51.144Z,999.55
2018-11-10T02:28:17.345Z,999.57
2018-11-10T02:28:43.479Z,999.52
2018-11-10T02:29:09.610Z,999.54
2018-11-10T02:29:35.741Z,999.55
2018-11-10T02:30:01.901Z,999.52
2018-11-10T02:30:28.052Z,999.54
2018-11-10T02:30:54.184Z,999.48
2018-11-10T02:31:20.317Z,999.5
2018-11-10T02:31:46.497Z,999.5
2018-11-10T02:32:12.620Z,999.48
2018-11-10T02:32:38.757Z,999.45
2018-11-10T02:33:04.939Z,999.45
2018-11-10T02:33:31.029Z,999.44
2018-11-10T02:33:57.158Z,999.43
2018-11-10T02:34:23.285Z,999.45
2018-11-10T02:34:49.441Z,999.41
2018-11-10T02:35:15.625Z,999.4
2018-11-10T02:35:41.752Z,999.39
2018-11-10T02:36:07.886Z,999.42
2018-11-10T02:36:34.040Z,999.38
2018-11-10T02:37:00.192Z,999.36
2018-11-10T02:37:26.319Z,999.32
2018-11-10T02:37:52.457Z,999.33
2018-11-10T02:38:18.657Z,999.33
2018-11-10T02:38:44.967Z,999.33
2018-11-10T02:39:10.953Z,999.32
2018-11-10T02:39:37.112Z,999.3
2018-11-10T02:40:03.270Z,999.31
2018-11-10T02:40:29.437Z,999.29
2018-11-10T02:40:55.582Z,999.25
2018-11-10T02:41:21.729Z,999.29
2018-11-10T02:41:47.844Z,999.27
2018-11-10T02:42:14.021Z,999.28
2018-11-10T02:42:40.162Z,999.26
2018-11-10T02:43:06.315Z,999.25
2018-11-10T02:43:32.445Z,999.2
2018-11-10T02:43:58.651Z,999.26
2018-11-10T02:44:24.810Z,999.19
2018-11-10T02:44:50.944Z,999.2
2018-11-10T02:45:17.094Z,999.21
2018-11-10T02:45:43.257Z,999.22
2018-11-10T02:46:09.423Z,999.18
2018-11-10T02:46:35.556Z,999.24
2018-11-10T02:47:01.692Z,999.2
2018-11-10T02:47:27.848Z,999.21
2018-11-10T02:47:54.007Z,999.22
2018-11-10T02:48:20.138Z,999.21
2018-11-10T02:48:46.274Z,999.17
2018-11-10T02:49:12.407Z,999.15
2018-11-10T02:49:38.538Z,999.18
2018-11-10T02:50:04.670Z,999.18
2018-11-10T02:50:30.809Z,999.18
2018-11-10T02:50:56.938Z,999.13
2018-11-10T02:51:23.071Z,999.19
2018-11-10T02:51:49.205Z,999.18
2018-11-10T02:52:15.337Z,999.15
2018-11-10T02:52:41.539Z,999.18
2018-11-10T02:53:07.619Z,999.18
2018-11-10T02:53:33.756Z,999.12
2018-11-10T02:53:59.914Z,999.13
2018-11-10T02:54:26.045Z,999.15
2018-11-10T02:54:52.177Z,999.15
2018-11-10T02:55:18.332Z,999.18
2018-11-10T02:55:44.463Z,999.17
2018-11-10T02:56:10.599Z,999.15
2018-11-10T02:56:36.732Z,999.1
2018-11-10T02:57:02.871Z,999.12
2018-11-10T02:57:28.997Z,999.13
2018-11-10T02:57:55.131Z,999.13
2018-11-10T02:58:21.290Z,999.08
2018-11-10T02:58:47.423Z,999.09
2018-11-10T02:59:13.580Z,999.1
2018-11-10T02:59:39.718Z,999.06
2018-11-10T03:00:05.843Z,999.06
2018-11-10T03:00:31.999Z,999.08
2018-11-10T03:00:58.128Z,999.08
2018-11-10T03:01:24.259Z,999.08
2018-11-10T03:01:50.416Z,999.08
2018-11-10T03:02:16.576Z,999.11
2018-11-10T03:02:42.736Z,999.07
2018-11-10T03:03:08.868Z,999.06
2018-11-10T03:03:34.997Z,999.06
2018-11-10T03:04:01.147Z,999.04
2018-11-10T03:04:27.281Z,999.02
2018-11-10T03:04:53.413Z,999.08
2018-11-10T03:05:19.551Z,999.01
2018-11-10T03:05:45.681Z,999.01
2018-11-10T03:06:11.842Z,998.96
2018-11-10T03:06:37.973Z,998.92
2018-11-10T03:07:04.117Z,998.93
2018-11-10T03:07:30.252Z,998.93
2018-11-10T03:07:56.417Z,998.89
2018-11-10T03:08:22.550Z,998.89
2018-11-10T03:08:48.685Z,998.87
2018-11-10T03:09:14.817Z,998.88
2018-11-10T03:09:40.966Z,998.83
2018-11-10T03:10:07.127Z,998.85
2018-11-10T03:10:33.291Z,998.84
2018-11-10T03:10:59.420Z,998.81
2018-11-10T03:11:25.548Z,998.85
2018-11-10T03:11:51.684Z,998.85
2018-11-10T03:12:17.869Z,998.83
2018-11-10T03:12:44.007Z,998.82
2018-11-10T03:13:10.141Z,998.82
2018-11-10T03:13:36.294Z,998.79
2018-11-10T03:14:02.424Z,998.82
2018-11-10T03:14:28.579Z,998.81
2018-11-10T03:14:54.710Z,998.79
2018-11-10T03:15:20.845Z,998.78
2018-11-10T03:15:46.983Z,998.78
2018-11-10T03:16:13.121Z,998.78
2018-11-10T03:16:39.256Z,998.82
2018-11-10T03:17:05.420Z,998.82
2018-11-10T03:17:31.555Z,998.72
2018-11-10T03:17:57.683Z,998.7
2018-11-10T03:18:23.820Z,998.72
2018-11-10T03:18:49.954Z,998.7
2018-11-10T03:19:16.115Z,998.73
2018-11-10T03:19:42.237Z,998.74
2018-11-10T03:20:08.392Z,998.75
2018-11-10T03:20:34.524Z,998.69
2018-11-10T03:21:00.658Z,998.74
2018-11-10T03:21:26.784Z,998.72
2018-11-10T03:21:52.912Z,998.72
2018-11-10T03:22:19.048Z,998.69
2018-11-10T03:22:45.184Z,998.7
2018-11-10T03:23:11.319Z,998.72
2018-11-10T03:23:37.445Z,998.68
2018-11-10T03:24:03.588Z,998.66
2018-11-10T03:24:29.724Z,998.62
2018-11-10T03:24:55.856Z,998.67
2018-11-10T03:25:21.985Z,998.66
2018-11-10T03:25:48.146Z,998.67
2018-11-10T03:26:14.278Z,998.62
2018-11-10T03:26:40.433Z,998.65
2018-11-10T03:27:06.562Z,998.64
2018-11-10T03:27:32.696Z,998.66
2018-11-10T03:27:58.827Z,998.63
2018-11-10T03:28:25.012Z,998.58
2018-11-10T03:28:51.193Z,998.6
2018-11-10T03:29:17.346Z,998.59
2018-11-10T03:29:43.506Z,998.57
2018-11-10T03:30:09.630Z,998.62
2018-11-10T03:30:35.764Z,998.56
2018-11-10T03:31:01.975Z,998.57
2018-11-10T03:31:28.128Z,998.57
2018-11-10T03:31:54.259Z,998.57
2018-11-10T03:32:20.408Z,998.55
2018-11-10T03:32:46.604Z,998.58
2018-11-10T03:33:12.732Z,998.56
2018-11-10T03:33:38.865Z,998.54
2018-11-10T03:34:04.998Z,998.52
2018-11-10T03:34:31.124Z,998.54
2018-11-10T03:34:57.277Z,998.5
2018-11-10T03:35:23.439Z,998.5
2018-11-10T03:35:49.593Z,998.49
2018-11-10T03:36:15.727Z,998.52
2018-11-10T03:36:41.865Z,998.5
2018-11-10T03:37:07.997Z,998.49
2018-11-10T03:37:34.156Z,998.46
2018-11-10T03:38:00.292Z,998.51
2018-11-10T03:38:26.431Z,998.5
2018-11-10T03:38:52.561Z,998.5
2018-11-10T03:39:18.701Z,998.46
2018-11-10T03:39:44.850Z,998.48
2018-11-10T03:40:10.988Z,998.46
2018-11-10T03:40:37.115Z,998.44
2018-11-10T03:41:03.278Z,998.42
2018-11-10T03:41:29.436Z,998.43
2018-11-10T03:41:55.564Z,998.4
2018-11-10T03:42:21.701Z,998.39
2018-11-10T03:42:47.835Z,998.41
2018-11-10T03:43:13.968Z,998.39
2018-11-10T03:43:40.102Z,998.36
2018-11-10T03:44:06.235Z,998.36
2018-11-10T03:44:32.361Z,998.39
2018-11-10T03:44:58.497Z,998.28
2018-11-10T03:45:24.620Z,998.32
2018-11-10T03:45:50.757Z,998.28
2018-11-10T03:46:16.890Z,998.3
2018-11-10T03:46:43.025Z,998.31
2018-11-10T03:47:09.189Z,998.31
2018-11-10T03:47:35.316Z,998.34
2018-11-10T03:48:01.472Z,998.32
2018-11-10T03:48:27.624Z,998.29
2018-11-10T03:48:53.949Z,998.33
2018-11-10T03:49:19.929Z,998.34
2018-11-10T03:49:46.098Z,998.33
2018-11-10T03:50:12.247Z,998.3
2018-11-10T03:50:38.378Z,998.31
2018-11-10T03:51:04.502Z,998.27
2018-11-10T03:51:30.659Z,998.31
2018-11-10T03:51:56.789Z,998.3
2018-11-10T03:52:22.928Z,998.3
2018-11-10T03:52:49.087Z,998.33
2018-11-10T03:53:15.221Z,998.29
2018-11-10T03:53:41.355Z,998.29
2018-11-10T03:54:07.492Z,998.28
2018-11-10T03:54:33.646Z,998.27
2018-11-10T03:54:59.777Z,998.25
2018-11-10T03:55:25.940Z,998.27
2018-11-10T03:55:52.094Z,998.24
2018-11-10T03:56:18.261Z,998.27
2018-11-10T03:56:44.388Z,998.24
2018-11-10T03:57:10.547Z,998.25
2018-11-10T03:57:36.701Z,998.24
2018-11-10T03:58:02.843Z,998.24
2018-11-10T03:58:28.974Z,998.25
2018-11-10T03:58:55.114Z,998.27
2018-11-10T03:59:21.273Z,998.25
2018-11-10T03:59:47.400Z,998.24
2018-11-10T04:00:13.535Z,998.26
2018-11-10T04:00:39.691Z,998.31
2018-11-10T04:01:05.833Z,998.28
2018-11-10T04:01:31.986Z,998.25
2018-11-10T04:01:58.144Z,998.26
2018-11-10T04:02:24.280Z,998.28
2018-11-10T04:02:50.413Z,998.23
2018-11-10T04:03:16.593Z,998.22
2018-11-10T04:03:42.785Z,998.26
2018-11-10T04:04:08.913Z,998.25
2018-11-10T04:04:35.046Z,998.23
2018-11-10T04:05:01.173Z,998.2
2018-11-10T04:05:27.343Z,998.21
2018-11-10T04:05:53.471Z,998.21
2018-11-10T04:06:19.628Z,998.21
2018-11-10T04:06:45.760Z,998.18
2018-11-10T04:07:11.891Z,998.18
2018-11-10T04:07:38.029Z,998.17
2018-11-10T04:08:04.153Z,998.17
2018-11-10T04:08:30.293Z,998.13
2018-11-10T04:08:56.425Z,998.18
2018-11-10T04:09:22.590Z,998.17
2018-11-10T04:09:48.769Z,998.11
2018-11-10T04:10:14.920Z,998.12
2018-11-10T04:10:41.054Z,998.15
2018-11-10T04:11:07.187Z,998.15
2018-11-10T04:11:33.320Z,998.09
2018-11-10T04:11:59.443Z,998.06
2018-11-10T04:12:25.579Z,998.07
2018-11-10T04:12:51.725Z,998.06
2018-11-10T04:13:17.859Z,998.09
2018-11-10T04:13:43.990Z,998.05
2018-11-10T04:14:10.131Z,998.07
2018-11-10T04:14:36.261Z,998.02
2018-11-10T04:15:02.389Z,997.98
2018-11-10T04:15:28.521Z,998
2018-11-10T04:15:54.681Z,997.97
2018-11-10T04:16:20.846Z,998.02
2018-11-10T04:16:47.003Z,997.99
2018-11-10T04:17:13.134Z,997.99
2018-11-10T04:17:39.267Z,997.99
2018-11-10T04:18:05.400Z,997.94
2018-11-10T04:18:31.531Z,997.95
2018-11-10T04:18:57.672Z,997.97
2018-11-10T04:19:23.804Z,998
2018-11-10T04:19:49.966Z,997.99
2018-11-10T04:20:16.092Z,997.95
2018-11-10T04:20:42.272Z,997.99
2018-11-10T04:21:08.402Z,997.95
2018-11-10T04:21:34.561Z,997.92
2018-11-10T04:22:00.695Z,997.98
2018-11-10T04:22:26.850Z,997.93
2018-11-10T04:22:52.987Z,997.98
2018-11-10T04:23:19.125Z,997.95
2018-11-10T04:23:45.251Z,997.96
2018-11-10T04:24:11.382Z,997.9
2018-11-10T04:24:37.518Z,997.94
2018-11-10T04:25:03.652Z,997.93
2018-11-10T04:25:29.811Z,997.96
2018-11-10T04:25:55.942Z,997.9
2018-11-10T04:26:22.077Z,997.89
2018-11-10T04:26:48.201Z,997.95
2018-11-10T04:27:14.361Z,997.94
2018-11-10T04:27:40.492Z,997.9
2018-11-10T04:28:06.628Z,997.9
2018-11-10T04:28:32.762Z,997.9
2018-11-10T04:28:58.912Z,997.84
2018-11-10T04:29:25.051Z,997.82
2018-11-10T04:29:51.179Z,997.82
2018-11-10T04:30:17.340Z,997.83
2018-11-10T04:30:43.474Z,997.76
2018-11-10T04:31:09.605Z,997.76
2018-11-10T04:31:35.758Z,997.77
2018-11-10T04:32:01.892Z,997.78
2018-11-10T04:32:28.024Z,997.75
2018-11-10T04:32:54.155Z,997.75
2018-11-10T04:33:20.290Z,997.76
2018-11-10T04:33:46.419Z,997.74
2018-11-10T04:34:12.576Z,997.74
2018-11-10T04:34:38.714Z,997.72
2018-11-10T04:35:04.851Z,997.75
2018-11-10T04:35:30.980Z,997.73
2018-11-10T04:35:57.136Z,997.72
2018-11-10T04:36:23.268Z,997.75
2018-11-10T04:36:49.412Z,997.73
2018-11-10T04:37:15.540Z,997.73
2018-11-10T04:37:41.672Z,997.74
2018-11-10T04:38:07.829Z,997.71
2018-11-10T04:38:33.960Z,997.7
2018-11-10T04:39:00.092Z,997.7
2018-11-10T04:39:26.225Z,997.7
2018-11-10T04:39:52.382Z,997.7
2018-11-10T04:40:18.544Z,997.74
2018-11-10T04:40:44.696Z,997.69
2018-11-10T04:41:10.825Z,997.68
2018-11-10T04:41:36.981Z,997.64
2018-11-10T04:42:03.112Z,997.63
2018-11-10T04:42:29.273Z,997.65
2018-11-10T04:42:55.400Z,997.62
2018-11-10T04:43:21.540Z,997.64
2018-11-10T04:43:47.683Z,997.62
2018-11-10T04:44:13.824Z,997.61
2018-11-10T04:44:39.981Z,997.6
2018-11-10T04:45:06.119Z,997.61
2018-11-10T04:45:32.251Z,997.58
2018-11-10T04:45:58.408Z,997.58
2018-11-10T04:46:24.533Z,997.56
2018-11-10T04:46:50.664Z,997.57
2018-11-10T04:47:16.791Z,997.52
2018-11-10T04:47:42.924Z,997.57
2018-11-10T04:48:09.055Z,997.58
2018-11-10T04:48:35.187Z,997.53
2018-11-10T04:49:01.319Z,997.52
2018-11-10T04:49:27.449Z,997.52
2018-11-10T04:49:53.707Z,997.51
2018-11-10T04:50:19.755Z,997.55
2018-11-10T04:50:45.882Z,997.5
2018-11-10T04:51:12.016Z,997.51
2018-11-10T04:51:38.150Z,997.52
2018-11-10T04:52:04.285Z,997.48
2018-11-10T04:52:30.443Z,997.47
2018-11-10T04:52:56.575Z,997.52
2018-11-10T04:53:22.702Z,997.54
2018-11-10T04:53:48.839Z,997.49
2018-11-10T04:54:14.967Z,997.49
2018-11-10T04:54:41.151Z,997.5
2018-11-10T04:55:07.290Z,997.49
2018-11-10T04:55:33.436Z,997.52
2018-11-10T04:55:59.571Z,997.5
2018-11-10T04:56:25.703Z,997.49
2018-11-10T04:56:51.836Z,997.47
2018-11-10T04:57:17.975Z,997.51
2018-11-10T04:57:44.110Z,997.47
2018-11-10T04:58:10.238Z,997.46
2018-11-10T04:58:36.396Z,997.43
2018-11-10T04:59:02.554Z,997.41
2018-11-10T04:59:28.693Z,997.45
2018-11-10T04:59:54.843Z,997.48
2018-11-10T05:00:20.972Z,997.43
2018-11-10T05:00:47.109Z,997.47
2018-11-10T05:01:13.320Z,997.47
2018-11-10T05:01:39.442Z,997.5
2018-11-10T05:02:05.577Z,997.47
2018-11-10T05:02:31.703Z,997.51
2018-11-10T05:02:57.858Z,997.48
2018-11-10T05:03:24.023Z,997.51
2018-11-10T05:03:50.153Z,997.46
2018-11-10T05:04:16.281Z,997.43
2018-11-10T05:04:42.415Z,997.43
2018-11-10T05:05:08.566Z,997.44
2018-11-10T05:05:34.723Z,997.43
2018-11-10T05:06:00.854Z,997.44
2018-11-10T05:06:27.009Z,997.39
2018-11-10T05:06:53.180Z,997.42
2018-11-10T05:07:19.316Z,997.4
2018-11-10T05:07:45.446Z,997.4
2018-11-10T05:08:11.576Z,997.39
2018-11-10T05:08:37.714Z,997.35
2018-11-10T05:09:03.850Z,997.35
2018-11-10T05:09:29.983Z,997.38
2018-11-10T05:09:56.145Z,997.32
2018-11-10T05:10:22.297Z,997.32
2018-11-10T05:10:48.451Z,997.31
2018-11-10T05:11:14.612Z,997.3
2018-11-10T05:11:40.779Z,997.27
2018-11-10T05:12:06.904Z,997.31
2018-11-10T05:12:33.034Z,997.32
2018-11-10T05:12:59.215Z,997.26
2018-11-10T05:13:25.375Z,997.34
2018-11-10T05:13:51.526Z,997.29
2018-11-10T05:14:17.657Z,997.29
2018-11-10T05:14:43.789Z,997.27
2018-11-10T05:15:09.913Z,997.24
2018-11-10T05:15:36.092Z,997.27
2018-11-10T05:16:02.254Z,997.26
2018-11-10T05:16:28.387Z,997.27
2018-11-10T05:16:54.520Z,997.24
2018-11-10T05:17:20.651Z,997.25
2018-11-10T05:17:46.790Z,997.21
2018-11-10T05:18:12.948Z,997.23
2018-11-10T05:18:39.053Z,997.23
2018-11-10T05:19:05.181Z,997.26
2018-11-10T05:19:31.343Z,997.27
2018-11-10T05:19:57.474Z,997.26
2018-11-10T05:20:23.610Z,997.24
2018-11-10T05:20:49.734Z,997.28
2018-11-10T05:21:15.897Z,997.26
2018-11-10T05:21:42.031Z,997.25
2018-11-10T05:22:08.160Z,997.28
2018-11-10T05:22:34.290Z,997.24
2018-11-10T05:23:00.423Z,997.26
2018-11-10T05:23:26.567Z,997.26
2018-11-10T05:23:52.695Z,997.27